Time;durP1;ratioP1;P1;durP2;ratioP2;P2;SDS_P1;SDS_P2;PMS_P1;PMS_P2;Temp;Humidity;BMP_temperature;BMP_pressure;BME280_temperature;BME280_humidity;BME280_pressure;Samples;Min_cycle;Max_cycle;Signal;HPM_P1;HPM_P2
2023/04/09 00:01:03;;;;;;;34.95;17.73;;;;;;;;;;5032066;28;20071;-74
2023/04/09 00:03:29;;;;;;;37.30;17.58;;;;;;;;;;5031067;28;20025;-74
2023/04/09 00:05:55;;;;;;;35.28;17.83;;;;;;;;;;5032093;28;20053;-73
2023/04/09 00:08:22;;;;;;;32.78;16.98;;;;;;;;;;5031938;28;20501;-74
2023/04/09 00:10:49;;;;;;;36.33;18.00;;;;;;;;;;5031700;28;20041;-74
2023/04/09 00:13:15;;;;;;;38.00;18.70;;;;;;;;;;5031808;28;20419;-74
2023/04/09 00:15:41;;;;;;;42.85;20.00;;;;;;;;;;5031825;28;20033;-74
2023/04/09 00:18:07;;;;;;;39.53;19.38;;;;;;;;;;5031961;28;20049;-74
2023/04/09 00:20:33;;;;;;;41.63;21.27;;;;;;;;;;5031871;28;20056;-73
2023/04/09 00:22:59;;;;;;;42.58;18.98;;;;;;;;;;5031772;28;20076;-74
2023/04/09 00:25:25;;;;;;;44.78;20.73;;;;;;;;;;5031481;28;20026;-73
2023/04/09 00:27:51;;;;;;;46.22;20.63;;;;;;;;;;5031405;28;20053;-74
2023/04/09 00:30:17;;;;;;;47.78;22.63;;;;;;;;;;5031542;28;20025;-73
2023/04/09 00:32:43;;;;;;;47.95;23.13;;;;;;;;;;5031573;28;20021;-73
2023/04/09 00:35:09;;;;;;;43.67;21.83;;;;;;;;;;5031503;28;20387;-74
2023/04/09 00:37:35;;;;;;;47.47;23.73;;;;;;;;;;5031479;28;20513;-78
2023/04/09 00:40:02;;;;;;;52.20;26.00;;;;;;;;;;5031654;28;20033;-78
2023/04/09 00:42:31;;;;;;;55.92;28.45;;;;;;;;;;5031272;28;20046;-74
2023/04/09 00:44:57;;;;;;;55.72;27.88;;;;;;;;;;5031371;28;20041;-74
2023/04/09 00:47:23;;;;;;;64.07;28.30;;;;;;;;;;5031223;28;20017;-73
2023/04/09 00:49:49;;;;;;;61.08;28.52;;;;;;;;;;5031261;28;20025;-74
2023/04/09 00:52:15;;;;;;;68.47;28.45;;;;;;;;;;5031241;28;20041;-75
2023/04/09 00:54:41;;;;;;;63.20;29.75;;;;;;;;;;5031292;28;20116;-73
2023/04/09 00:57:07;;;;;;;63.17;28.73;;;;;;;;;;5031112;28;20022;-74
2023/04/09 00:59:34;;;;;;;61.15;29.50;;;;;;;;;;5031354;28;20109;-73
2023/04/09 01:02:00;;;;;;;65.07;29.70;;;;;;;;;;5029754;28;20025;-74
2023/04/09 01:04:26;;;;;;;70.43;30.15;;;;;;;;;;5030971;28;20512;-75
2023/04/09 01:06:53;;;;;;;68.22;29.77;;;;;;;;;;5031090;28;20425;-77
2023/04/09 01:09:35;;;;;;;66.40;29.95;;;;;;;;;;5031053;28;20037;-76
2023/04/09 01:12:09;;;;;;;73.28;32.42;;;;;;;;;;5031218;28;20021;-75
2023/04/09 01:14:41;;;;;;;73.55;31.88;;;;;;;;;;5033330;28;20025;-75
2023/04/09 01:17:12;;;;;;;66.35;30.38;;;;;;;;;;5035272;28;20112;-75
2023/04/09 01:19:41;;;;;;;78.30;31.73;;;;;;;;;;5035304;28;20021;-77
2023/04/09 01:22:13;;;;;;;69.40;32.45;;;;;;;;;;5035138;28;20027;-76
2023/04/09 01:24:41;;;;;;;64.95;29.63;;;;;;;;;;5034889;28;20543;-75
2023/04/09 01:27:08;;;;;;;62.30;30.40;;;;;;;;;;5034825;28;20482;-74
2023/04/09 01:29:54;;;;;;;74.30;32.17;;;;;;;;;;5034910;28;20025;-74
2023/04/09 01:32:21;;;;;;;80.68;32.53;;;;;;;;;;5034599;28;20095;-74
2023/04/09 01:34:47;;;;;;;71.18;32.90;;;;;;;;;;5034671;28;20056;-73
2023/04/09 01:37:15;;;;;;;74.13;30.95;;;;;;;;;;5034735;28;20018;-74
2023/04/09 01:39:41;;;;;;;67.63;30.58;;;;;;;;;;5034754;28;20033;-74
2023/04/09 01:42:09;;;;;;;74.90;33.60;;;;;;;;;;5034554;28;20085;-74
2023/04/09 01:44:37;;;;;;;75.10;33.15;;;;;;;;;;5034641;28;20425;-74
2023/04/09 01:47:03;;;;;;;75.80;31.17;;;;;;;;;;5034835;28;20481;-74
2023/04/09 01:49:29;;;;;;;79.18;32.30;;;;;;;;;;5034718;28;20025;-74
2023/04/09 01:51:55;;;;;;;76.90;32.40;;;;;;;;;;5034487;28;20045;-74
2023/04/09 01:54:22;;;;;;;79.88;33.45;;;;;;;;;;5034425;28;20021;-74
2023/04/09 01:56:48;;;;;;;84.40;32.65;;;;;;;;;;5034354;28;20017;-76
2023/04/09 01:59:14;;;;;;;87.65;35.05;;;;;;;;;;5034214;28;20021;-75
2023/04/09 02:01:48;;;;;;;84.20;32.15;;;;;;;;;;5034520;28;20097;-74
2023/04/09 02:04:17;;;;;;;86.18;32.58;;;;;;;;;;5034337;28;20037;-74
2023/04/09 02:06:47;;;;;;;89.93;34.38;;;;;;;;;;5034385;28;20108;-75
2023/04/09 02:09:14;;;;;;;81.60;32.65;;;;;;;;;;5034019;28;20033;-73
2023/04/09 02:11:41;;;;;;;83.93;33.05;;;;;;;;;;5034106;28;20032;-74
2023/04/09 02:14:09;;;;;;;89.35;33.90;;;;;;;;;;5033924;28;20036;-75
2023/04/09 02:16:36;;;;;;;91.32;34.00;;;;;;;;;;5034333;28;20036;-74
2023/04/09 02:19:02;;;;;;;80.00;33.25;;;;;;;;;;5032639;28;20057;-74
2023/04/09 02:21:29;;;;;;;80.85;33.10;;;;;;;;;;5034009;28;20029;-73
2023/04/09 02:23:55;;;;;;;84.43;33.58;;;;;;;;;;5033697;28;20037;-73
2023/04/09 02:26:22;;;;;;;87.88;33.92;;;;;;;;;;5032638;28;20029;-74
2023/04/09 02:28:48;;;;;;;87.90;33.67;;;;;;;;;;5033669;28;20032;-74
2023/04/09 02:31:14;;;;;;;85.13;33.15;;;;;;;;;;5033689;28;20382;-75
2023/04/09 02:33:41;;;;;;;84.07;33.85;;;;;;;;;;5033816;28;20026;-74
2023/04/09 02:36:10;;;;;;;80.53;33.00;;;;;;;;;;5033688;28;20398;-75
2023/04/09 02:38:36;;;;;;;78.18;33.80;;;;;;;;;;5033243;28;20029;-76
2023/04/09 02:41:02;;;;;;;79.72;33.47;;;;;;;;;;5033518;28;20505;-74
2023/04/09 02:43:28;;;;;;;82.38;33.65;;;;;;;;;;5033592;28;20034;-76
2023/04/09 02:45:54;;;;;;;86.93;36.03;;;;;;;;;;5033508;28;20033;-76
2023/04/09 02:48:20;;;;;;;83.25;33.90;;;;;;;;;;5033492;28;20108;-76
2023/04/09 02:50:46;;;;;;;86.53;33.20;;;;;;;;;;5033455;28;20100;-76
2023/04/09 02:53:12;;;;;;;87.82;33.63;;;;;;;;;;5033278;28;20029;-75
2023/04/09 02:55:39;;;;;;;89.55;33.15;;;;;;;;;;5033322;28;20029;-75
2023/04/09 02:58:05;;;;;;;82.30;34.47;;;;;;;;;;5033262;28;20031;-75
2023/04/09 03:00:31;;;;;;;87.78;34.88;;;;;;;;;;5033334;28;20100;-75
2023/04/09 03:02:57;;;;;;;86.15;33.75;;;;;;;;;;5033113;28;20022;-75
2023/04/09 03:05:23;;;;;;;90.68;35.35;;;;;;;;;;5033200;28;20429;-75
2023/04/09 03:07:49;;;;;;;94.57;33.20;;;;;;;;;;5032963;28;20122;-74
2023/04/09 03:10:15;;;;;;;94.90;32.83;;;;;;;;;;5033142;28;20026;-74
2023/04/09 03:12:43;;;;;;;92.35;34.67;;;;;;;;;;5033140;28;20045;-76
2023/04/09 03:15:09;;;;;;;84.82;32.35;;;;;;;;;;5033001;28;20025;-75
2023/04/09 03:17:35;;;;;;;90.10;33.55;;;;;;;;;;5033010;28;20083;-75
2023/04/09 03:20:01;;;;;;;87.68;33.50;;;;;;;;;;5032792;28;20026;-75
2023/04/09 03:22:27;;;;;;;91.45;34.67;;;;;;;;;;5032746;28;20031;-75
2023/04/09 03:24:53;;;;;;;88.40;33.67;;;;;;;;;;5032610;28;20038;-74
2023/04/09 03:27:20;;;;;;;91.18;32.92;;;;;;;;;;5032578;28;20025;-75
2023/04/09 03:29:46;;;;;;;96.90;33.22;;;;;;;;;;5032741;28;20074;-74
2023/04/09 03:32:12;;;;;;;95.78;33.65;;;;;;;;;;5032588;28;20021;-75
2023/04/09 03:34:38;;;;;;;93.32;32.13;;;;;;;;;;5032414;28;20022;-74
2023/04/09 03:37:04;;;;;;;96.38;33.80;;;;;;;;;;5032022;28;20497;-74
2023/04/09 03:39:30;;;;;;;91.20;34.40;;;;;;;;;;5032509;28;20118;-74
2023/04/09 03:41:57;;;;;;;94.05;33.22;;;;;;;;;;5032690;28;20053;-75
2023/04/09 03:44:24;;;;;;;91.85;33.72;;;;;;;;;;5032301;28;20029;-74
2023/04/09 03:46:50;;;;;;;94.60;32.75;;;;;;;;;;5032167;28;20028;-73
2023/04/09 03:49:16;;;;;;;93.72;33.38;;;;;;;;;;5031052;28;20384;-73
2023/04/09 03:51:43;;;;;;;91.07;33.03;;;;;;;;;;5032197;28;20025;-73
2023/04/09 03:54:09;;;;;;;97.68;34.60;;;;;;;;;;5032557;28;20022;-73
2023/04/09 03:56:35;;;;;;;97.35;34.38;;;;;;;;;;5032095;28;20444;-73
2023/04/09 03:59:01;;;;;;;90.50;33.03;;;;;;;;;;5032098;28;20497;-73
2023/04/09 04:01:27;;;;;;;87.88;32.28;;;;;;;;;;5030901;28;20053;-74
2023/04/09 04:03:53;;;;;;;92.63;33.42;;;;;;;;;;5031965;28;20094;-73
2023/04/09 04:06:19;;;;;;;96.78;33.60;;;;;;;;;;5031934;28;20030;-73
2023/04/09 04:08:45;;;;;;;92.57;32.50;;;;;;;;;;5031864;28;20029;-73
2023/04/09 04:11:11;;;;;;;92.40;31.95;;;;;;;;;;5031822;28;20036;-74
2023/04/09 04:13:37;;;;;;;93.18;33.00;;;;;;;;;;5031670;28;20393;-73
2023/04/09 04:16:06;;;;;;;96.80;33.75;;;;;;;;;;5031788;28;20539;-74
2023/04/09 04:18:32;;;;;;;92.40;33.55;;;;;;;;;;5030383;28;20504;-76
2023/04/09 04:20:58;;;;;;;84.35;30.90;;;;;;;;;;5031787;28;20116;-74
2023/04/09 04:23:24;;;;;;;91.53;32.72;;;;;;;;;;5031562;28;20033;-75
2023/04/09 04:25:51;;;;;;;92.35;31.60;;;;;;;;;;5031685;28;20026;-75
2023/04/09 04:28:18;;;;;;;86.43;31.48;;;;;;;;;;5030049;28;20029;-75
2023/04/09 04:30:44;;;;;;;96.32;32.50;;;;;;;;;;5031453;28;20037;-73
2023/04/09 04:33:10;;;;;;;92.47;31.90;;;;;;;;;;5031442;28;20033;-74
2023/04/09 04:35:36;;;;;;;97.63;32.00;;;;;;;;;;5031535;28;20555;-74
2023/04/09 04:38:02;;;;;;;90.80;34.28;;;;;;;;;;5031525;28;20532;-77
2023/04/09 04:40:28;;;;;;;97.22;32.40;;;;;;;;;;5030202;28;20029;-76
2023/04/09 04:42:54;;;;;;;87.97;31.05;;;;;;;;;;5031198;28;20045;-76
2023/04/09 04:45:20;;;;;;;92.60;31.80;;;;;;;;;;5031327;28;20037;-75
2023/04/09 04:47:46;;;;;;;90.95;31.48;;;;;;;;;;5030930;28;20072;-73
2023/04/09 04:50:12;;;;;;;96.47;33.17;;;;;;;;;;5029637;28;20117;-75
2023/04/09 04:52:39;;;;;;;94.50;31.77;;;;;;;;;;5031316;28;20022;-75
2023/04/09 04:55:05;;;;;;;102.35;33.60;;;;;;;;;;5031091;28;20096;-75
2023/04/09 04:57:31;;;;;;;90.43;31.17;;;;;;;;;;5031095;28;20032;-74
2023/04/09 04:59:57;;;;;;;93.60;32.15;;;;;;;;;;5031137;28;20121;-74
2023/04/09 05:02:23;;;;;;;100.43;32.20;;;;;;;;;;5031098;28;20480;-74
2023/04/09 05:04:49;;;;;;;82.07;29.77;;;;;;;;;;5031018;28;20094;-73
2023/04/09 05:07:15;;;;;;;87.70;29.65;;;;;;;;;;5031066;28;20026;-73
2023/04/09 05:09:43;;;;;;;91.47;30.30;;;;;;;;;;5030861;28;20159;-75
2023/04/09 05:12:09;;;;;;;98.00;32.70;;;;;;;;;;5031110;28;20147;-73
2023/04/09 05:14:35;;;;;;;96.57;31.17;;;;;;;;;;5029779;28;20534;-74
2023/04/09 05:17:01;;;;;;;94.00;31.83;;;;;;;;;;5031290;28;20405;-78
2023/04/09 05:19:27;;;;;;;106.45;32.55;;;;;;;;;;5030005;28;20104;-78
2023/04/09 05:21:53;;;;;;;98.90;32.17;;;;;;;;;;5030790;28;20457;-73
2023/04/09 05:24:19;;;;;;;113.05;33.58;;;;;;;;;;5029431;28;20041;-76
2023/04/09 05:26:45;;;;;;;108.20;31.92;;;;;;;;;;5031006;28;20033;-76
2023/04/09 05:29:12;;;;;;;113.40;33.72;;;;;;;;;;5029529;28;20457;-76
2023/04/09 05:31:39;;;;;;;102.35;32.58;;;;;;;;;;5030898;28;20025;-76
2023/04/09 05:34:05;;;;;;;108.72;33.65;;;;;;;;;;5030795;28;20029;-78
2023/04/09 05:36:31;;;;;;;107.90;33.85;;;;;;;;;;5031162;28;20017;-76
2023/04/09 05:38:57;;;;;;;109.80;35.88;;;;;;;;;;5030864;28;20445;-76
2023/04/09 05:41:23;;;;;;;108.75;32.85;;;;;;;;;;5030708;28;20490;-75
2023/04/09 05:43:49;;;;;;;112.30;34.08;;;;;;;;;;5030595;28;20502;-73
2023/04/09 05:46:15;;;;;;;100.57;33.22;;;;;;;;;;5030535;28;20021;-75
2023/04/09 05:48:41;;;;;;;117.45;33.60;;;;;;;;;;5030884;28;20018;-75
2023/04/09 05:51:08;;;;;;;105.43;35.25;;;;;;;;;;5030667;28;20025;-76
2023/04/09 05:53:35;;;;;;;98.30;32.88;;;;;;;;;;5030986;28;20483;-75
2023/04/09 05:56:01;;;;;;;103.25;35.60;;;;;;;;;;5030789;28;20021;-76
2023/04/09 05:58:30;;;;;;;111.72;35.85;;;;;;;;;;5029836;28;20079;-76
2023/04/09 06:00:56;;;;;;;111.85;34.45;;;;;;;;;;5032973;28;20022;-75
2023/04/09 06:03:22;;;;;;;104.53;33.83;;;;;;;;;;5034187;28;20040;-75
2023/04/09 06:05:48;;;;;;;103.28;34.03;;;;;;;;;;5034309;28;20036;-76
2023/04/09 06:08:14;;;;;;;111.20;35.08;;;;;;;;;;5032699;28;20105;-76
2023/04/09 06:10:40;;;;;;;107.85;36.08;;;;;;;;;;5034086;28;20493;-77
2023/04/09 06:13:06;;;;;;;112.80;36.13;;;;;;;;;;5032805;28;20096;-77
2023/04/09 06:15:32;;;;;;;108.35;37.70;;;;;;;;;;5034066;28;20112;-75
2023/04/09 06:17:58;;;;;;;102.28;34.22;;;;;;;;;;5033076;28;20025;-75
2023/04/09 06:20:24;;;;;;;116.60;37.10;;;;;;;;;;5034170;28;20029;-75
2023/04/09 06:22:50;;;;;;;107.25;36.00;;;;;;;;;;5032823;28;20363;-75
2023/04/09 06:25:16;;;;;;;111.25;36.63;;;;;;;;;;5034079;28;20474;-76
2023/04/09 06:27:42;;;;;;;122.32;37.95;;;;;;;;;;5033922;28;20033;-77
2023/04/09 06:30:09;;;;;;;115.15;37.42;;;;;;;;;;5033930;28;20037;-76
2023/04/09 06:32:35;;;;;;;114.72;36.25;;;;;;;;;;5034062;28;20022;-76
2023/04/09 06:35:01;;;;;;;115.25;36.03;;;;;;;;;;5033889;28;20028;-76
2023/04/09 06:37:27;;;;;;;118.68;37.55;;;;;;;;;;5033790;28;20561;-77
2023/04/09 06:39:53;;;;;;;116.00;37.45;;;;;;;;;;5033484;28;20075;-77
2023/04/09 06:42:19;;;;;;;122.07;38.40;;;;;;;;;;5033728;28;20041;-74
2023/04/09 06:44:45;;;;;;;124.93;39.97;;;;;;;;;;5033447;28;20065;-73
2023/04/09 06:47:11;;;;;;;128.35;42.28;;;;;;;;;;5033616;28;20035;-75
2023/04/09 06:49:37;;;;;;;125.97;41.17;;;;;;;;;;5033869;28;20025;-74
2023/04/09 06:52:06;;;;;;;131.15;41.40;;;;;;;;;;5033513;28;20052;-74
2023/04/09 06:54:32;;;;;;;122.47;42.70;;;;;;;;;;5033296;28;20030;-74
2023/04/09 06:56:58;;;;;;;133.38;41.47;;;;;;;;;;5033250;28;20034;-75
2023/04/09 06:59:24;;;;;;;127.25;40.40;;;;;;;;;;5033711;28;20473;-79
2023/04/09 07:01:50;;;;;;;129.60;41.75;;;;;;;;;;5033648;28;20021;-78
2023/04/09 07:04:16;;;;;;;126.53;41.75;;;;;;;;;;5033293;28;20032;-76
2023/04/09 07:06:42;;;;;;;131.55;42.85;;;;;;;;;;5033132;28;20053;-75
2023/04/09 07:09:08;;;;;;;120.32;41.78;;;;;;;;;;5033128;28;20056;-75
2023/04/09 07:11:34;;;;;;;123.10;40.03;;;;;;;;;;5032520;28;20030;-76
2023/04/09 07:14:00;;;;;;;124.57;42.20;;;;;;;;;;5033310;28;20121;-76
2023/04/09 07:16:26;;;;;;;116.47;40.10;;;;;;;;;;5032949;28;20029;-76
2023/04/09 07:18:52;;;;;;;115.40;40.75;;;;;;;;;;5032950;28;20048;-74
2023/04/09 07:21:18;;;;;;;126.03;42.45;;;;;;;;;;5033002;28;20083;-74
2023/04/09 07:23:44;;;;;;;118.05;40.05;;;;;;;;;;5032905;28;20087;-75
2023/04/09 07:26:10;;;;;;;115.50;41.03;;;;;;;;;;5031540;28;20379;-76
2023/04/09 07:28:36;;;;;;;116.10;40.30;;;;;;;;;;5032881;28;20021;-75
2023/04/09 07:31:02;;;;;;;114.88;40.00;;;;;;;;;;5032696;28;20052;-76
2023/04/09 07:33:29;;;;;;;105.88;38.78;;;;;;;;;;5032985;28;20147;-76
2023/04/09 07:35:55;;;;;;;107.70;38.38;;;;;;;;;;5032897;28;20505;-76
2023/04/09 07:38:21;;;;;;;97.85;36.60;;;;;;;;;;5032859;28;20029;-77
2023/04/09 07:40:47;;;;;;;107.55;37.45;;;;;;;;;;5032450;28;20113;-76
2023/04/09 07:43:13;;;;;;;105.30;36.05;;;;;;;;;;5032474;28;20140;-74
2023/04/09 07:45:39;;;;;;;108.65;37.38;;;;;;;;;;5032568;28;20105;-76
2023/04/09 07:48:08;;;;;;;98.82;37.17;;;;;;;;;;5031369;28;20105;-74
2023/04/09 07:50:34;;;;;;;106.18;38.50;;;;;;;;;;5032823;28;20029;-74
2023/04/09 07:53:00;;;;;;;94.93;36.13;;;;;;;;;;5032397;28;20021;-74
2023/04/09 07:55:27;;;;;;;102.15;37.83;;;;;;;;;;5032290;28;20367;-75
2023/04/09 07:57:53;;;;;;;98.72;37.40;;;;;;;;;;5032296;28;20452;-73
2023/04/09 08:00:19;;;;;;;88.40;34.17;;;;;;;;;;5032444;28;20466;-75
2023/04/09 08:02:45;;;;;;;95.63;35.92;;;;;;;;;;5032712;28;20048;-74
2023/04/09 08:05:12;;;;;;;86.35;35.63;;;;;;;;;;5031708;28;20029;-75
2023/04/09 08:07:38;;;;;;;84.90;35.42;;;;;;;;;;5032129;28;20026;-74
2023/04/09 08:10:05;;;;;;;89.75;35.72;;;;;;;;;;5032114;28;20488;-73
2023/04/09 08:12:31;;;;;;;79.10;33.47;;;;;;;;;;5032084;28;20033;-74
2023/04/09 08:14:57;;;;;;;81.97;35.20;;;;;;;;;;5031901;28;20029;-76
2023/04/09 08:17:23;;;;;;;75.43;33.47;;;;;;;;;;5031900;28;20037;-74
2023/04/09 08:19:49;;;;;;;75.93;33.60;;;;;;;;;;5031998;28;20018;-75
2023/04/09 08:22:15;;;;;;;77.38;35.00;;;;;;;;;;5031759;28;20033;-73
2023/04/09 08:24:42;;;;;;;77.53;32.95;;;;;;;;;;5030608;28;20453;-75
2023/04/09 08:27:09;;;;;;;65.78;29.88;;;;;;;;;;5031632;28;20025;-74
2023/04/09 08:29:35;;;;;;;66.78;30.55;;;;;;;;;;5030486;28;20032;-73
2023/04/09 08:32:01;;;;;;;64.47;30.33;;;;;;;;;;5031893;28;20025;-74
2023/04/09 08:34:27;;;;;;;61.17;29.45;;;;;;;;;;5030476;28;20493;-74
2023/04/09 08:36:53;;;;;;;61.33;29.35;;;;;;;;;;5030182;28;20412;-73
2023/04/09 08:39:19;;;;;;;63.50;28.52;;;;;;;;;;5030507;28;20029;-74
2023/04/09 08:41:47;;;;;;;61.10;29.00;;;;;;;;;;5031501;28;20057;-74
2023/04/09 08:44:13;;;;;;;65.55;30.50;;;;;;;;;;5031874;28;20034;-75
2023/04/09 08:46:39;;;;;;;64.18;30.27;;;;;;;;;;5031696;28;20017;-75
2023/04/09 08:49:05;;;;;;;64.10;30.38;;;;;;;;;;5031732;28;20026;-75
2023/04/09 08:51:31;;;;;;;66.32;31.55;;;;;;;;;;5031629;28;20486;-76
2023/04/09 08:53:58;;;;;;;67.88;31.92;;;;;;;;;;5031810;28;20546;-74
2023/04/09 08:56:25;;;;;;;63.67;30.15;;;;;;;;;;5032444;28;20033;-75
2023/04/09 08:58:52;;;;;;;66.47;30.60;;;;;;;;;;5031434;28;20021;-73
2023/04/09 09:01:28;;;;;;;60.13;29.92;;;;;;;;;;5031313;28;20104;-75
2023/04/09 09:04:02;;;;;;;63.13;30.65;;;;;;;;;;5031615;28;20037;-73
2023/04/09 09:06:31;;;;;;;66.63;31.55;;;;;;;;;;5031351;28;20045;-74
2023/04/09 09:09:03;;;;;;;60.35;29.13;;;;;;;;;;5031580;28;20032;-73
2023/04/09 09:11:29;;;;;;;61.33;30.63;;;;;;;;;;5031240;28;20385;-73
2023/04/09 09:14:03;;;;;;;56.15;27.50;;;;;;;;;;5031046;28;20108;-74
2023/04/09 09:16:31;;;;;;;58.45;28.00;;;;;;;;;;5031103;28;20025;-73
2023/04/09 09:18:58;;;;;;;58.53;28.98;;;;;;;;;;5031055;28;20482;-73
2023/04/09 09:21:26;;;;;;;60.95;29.67;;;;;;;;;;5031054;28;20052;-73
2023/04/09 09:23:52;;;;;;;54.20;27.92;;;;;;;;;;5031160;28;20505;-73
2023/04/09 09:26:20;;;;;;;58.70;29.05;;;;;;;;;;5030900;28;20037;-74
2023/04/09 09:28:50;;;;;;;57.38;27.08;;;;;;;;;;5030958;28;20275;-72
2023/04/09 09:31:19;;;;;;;55.50;26.73;;;;;;;;;;5031157;28;20036;-73
2023/04/09 09:33:46;;;;;;;58.78;26.95;;;;;;;;;;5030983;28;20021;-73
2023/04/09 09:36:12;;;;;;;54.30;26.38;;;;;;;;;;5034288;28;20036;-73
2023/04/09 09:38:57;;;;;;;60.33;26.75;;;;;;;;;;5034810;28;20417;-73
2023/04/09 09:41:24;;;;;;;56.30;27.10;;;;;;;;;;5034650;28;20506;-74
2023/04/09 09:43:51;;;;;;;58.83;28.27;;;;;;;;;;5034923;28;20034;-73
2023/04/09 09:46:17;;;;;;;61.22;29.10;;;;;;;;;;5034581;28;20029;-73
2023/04/09 09:48:45;;;;;;;52.78;26.00;;;;;;;;;;5034749;28;20111;-74
2023/04/09 09:51:12;;;;;;;54.35;27.25;;;;;;;;;;5033296;28;20034;-74
2023/04/09 09:53:39;;;;;;;58.65;26.70;;;;;;;;;;5034591;28;20021;-74
2023/04/09 09:56:06;;;;;;;55.83;26.92;;;;;;;;;;5034335;28;20048;-74
2023/04/09 09:58:37;;;;;;;55.70;25.92;;;;;;;;;;5034569;28;20276;-73
2023/04/09 10:01:07;;;;;;;59.85;26.35;;;;;;;;;;5034512;28;20048;-74
2023/04/09 10:03:36;;;;;;;59.28;26.65;;;;;;;;;;5034325;28;20045;-72
2023/04/09 10:06:03;;;;;;;59.42;26.65;;;;;;;;;;5034375;28;20113;-74
2023/04/09 10:08:32;;;;;;;62.50;27.15;;;;;;;;;;5034120;28;20524;-73
2023/04/09 10:10:58;;;;;;;60.28;26.80;;;;;;;;;;5034176;28;20033;-73
2023/04/09 10:13:31;;;;;;;59.30;26.45;;;;;;;;;;5034415;28;20025;-73
2023/04/09 10:15:57;;;;;;;58.97;25.38;;;;;;;;;;5034064;28;20108;-73
2023/04/09 10:18:24;;;;;;;60.50;27.42;;;;;;;;;;5034094;28;20382;-74
2023/04/09 10:21:02;;;;;;;61.03;27.83;;;;;;;;;;5034008;28;20022;-73
2023/04/09 10:23:43;;;;;;;67.18;28.08;;;;;;;;;;5033961;28;20045;-73
2023/04/09 10:26:09;;;;;;;66.80;27.92;;;;;;;;;;5033985;28;20025;-73
2023/04/09 10:28:37;;;;;;;67.18;26.92;;;;;;;;;;5033645;28;20385;-73
2023/04/09 10:31:04;;;;;;;66.03;27.48;;;;;;;;;;5033830;28;20025;-74
2023/04/09 10:33:30;;;;;;;66.18;27.85;;;;;;;;;;5033755;28;20152;-74
2023/04/09 10:36:01;;;;;;;64.10;26.75;;;;;;;;;;5033751;28;20025;-74
2023/04/09 10:38:36;;;;;;;63.42;26.67;;;;;;;;;;5033514;28;20068;-73
2023/04/09 10:41:10;;;;;;;70.85;29.00;;;;;;;;;;5033470;28;20109;-75
2023/04/09 10:43:36;;;;;;;66.43;28.48;;;;;;;;;;5033481;28;20108;-73
2023/04/09 10:46:07;;;;;;;66.95;27.73;;;;;;;;;;5032683;28;20061;-74
2023/04/09 10:48:34;;;;;;;62.45;28.08;;;;;;;;;;5032025;28;20038;-73
2023/04/09 10:51:05;;;;;;;58.13;27.20;;;;;;;;;;5033760;28;20029;-73
2023/04/09 10:53:32;;;;;;;61.72;28.38;;;;;;;;;;5032193;28;20022;-73
2023/04/09 10:55:58;;;;;;;60.45;26.80;;;;;;;;;;5033344;28;20044;-73
2023/04/09 10:58:24;;;;;;;57.08;27.00;;;;;;;;;;5033329;28;20478;-73
2023/04/09 11:00:51;;;;;;;56.00;25.25;;;;;;;;;;5033351;28;20033;-74
2023/04/09 11:03:20;;;;;;;60.72;25.60;;;;;;;;;;5033430;28;20501;-74
2023/04/09 11:05:52;;;;;;;56.03;25.38;;;;;;;;;;5033466;28;20041;-73
2023/04/09 11:08:18;;;;;;;52.15;23.77;;;;;;;;;;5033052;28;20148;-73
2023/04/09 11:10:48;;;;;;;58.80;26.83;;;;;;;;;;5033123;28;20060;-73
2023/04/09 11:13:15;;;;;;;53.58;24.42;;;;;;;;;;5033135;28;20055;-74
2023/04/09 11:15:41;;;;;;;56.35;27.63;;;;;;;;;;5033247;28;20050;-76
2023/04/09 11:18:12;;;;;;;60.55;26.58;;;;;;;;;;5031717;28;20059;-74
2023/04/09 11:20:39;;;;;;;57.72;24.63;;;;;;;;;;5032975;28;20065;-72
2023/04/09 11:23:05;;;;;;;59.45;26.48;;;;;;;;;;5032996;28;20025;-73
2023/04/09 11:25:32;;;;;;;58.47;26.30;;;;;;;;;;5032553;28;20398;-73
2023/04/09 11:27:58;;;;;;;62.85;28.05;;;;;;;;;;5033152;28;20286;-74
2023/04/09 11:30:25;;;;;;;61.97;28.15;;;;;;;;;;5032608;28;20022;-73
2023/04/09 11:32:51;;;;;;;62.03;26.95;;;;;;;;;;5032578;28;20135;-75
2023/04/09 11:35:20;;;;;;;64.72;27.02;;;;;;;;;;5032545;28;20521;-74
2023/04/09 11:37:47;;;;;;;63.70;25.98;;;;;;;;;;5032498;28;20481;-74
2023/04/09 11:40:17;;;;;;;66.57;27.65;;;;;;;;;;5032489;28;20551;-72
2023/04/09 11:42:44;;;;;;;71.35;28.13;;;;;;;;;;5032450;28;20052;-74
2023/04/09 11:45:11;;;;;;;60.50;26.20;;;;;;;;;;5032286;28;20061;-73
2023/04/09 11:47:38;;;;;;;59.47;26.88;;;;;;;;;;5032448;28;20553;-73
2023/04/09 11:50:06;;;;;;;67.13;27.38;;;;;;;;;;5032313;28;20087;-72
2023/04/09 11:52:34;;;;;;;61.72;26.88;;;;;;;;;;5039826;28;20093;-77
2023/04/09 11:55:00;;;;;;;71.00;29.52;;;;;;;;;;5040731;28;20091;-79
2023/04/09 11:57:36;;;;;;;64.22;28.63;;;;;;;;;;5040362;28;20018;-77
2023/04/09 12:00:12;;;;;;;59.00;26.92;;;;;;;;;;5041535;28;20030;-77
2023/04/09 12:02:42;;;;;;;60.15;27.33;;;;;;;;;;5039889;28;20468;-81
2023/04/09 12:05:09;;;;;;;60.50;28.10;;;;;;;;;;5037267;28;20025;-78
2023/04/09 12:07:36;;;;;;;62.97;26.98;;;;;;;;;;5035598;28;20025;-77
2023/04/09 12:10:03;;;;;;;68.28;29.63;;;;;;;;;;5033434;28;20096;-71
2023/04/09 12:12:30;;;;;;;64.35;29.15;;;;;;;;;;5031772;28;20017;-71
2023/04/09 12:14:57;;;;;;;63.20;28.92;;;;;;;;;;5032003;28;20096;-72
2023/04/09 12:17:24;;;;;;;62.35;29.05;;;;;;;;;;5032203;28;20177;-77
2023/04/09 12:19:50;;;;;;;63.58;30.88;;;;;;;;;;5031967;28;20029;-73
2023/04/09 12:22:16;;;;;;;57.25;28.15;;;;;;;;;;5031943;28;20542;-71
2023/04/09 12:24:42;;;;;;;61.00;29.50;;;;;;;;;;5031673;28;20125;-71
2023/04/09 12:27:09;;;;;;;65.53;30.00;;;;;;;;;;5031839;28;20025;-70
2023/04/09 12:29:35;;;;;;;59.83;29.33;;;;;;;;;;5031786;28;20035;-73
2023/04/09 12:32:01;;;;;;;59.50;30.38;;;;;;;;;;5031771;28;20026;-74
2023/04/09 12:34:27;;;;;;;56.10;28.92;;;;;;;;;;5031564;28;20485;-74
2023/04/09 12:36:53;;;;;;;63.50;31.58;;;;;;;;;;5031797;28;20095;-74
2023/04/09 12:39:19;;;;;;;59.00;30.58;;;;;;;;;;5031731;28;20022;-73
2023/04/09 12:41:45;;;;;;;58.50;30.83;;;;;;;;;;5031359;28;20398;-73
2023/04/09 12:44:11;;;;;;;60.50;30.92;;;;;;;;;;5031637;28;20033;-76
2023/04/09 12:46:37;;;;;;;57.20;30.70;;;;;;;;;;5032984;28;20528;-77
2023/04/09 12:49:04;;;;;;;57.38;30.08;;;;;;;;;;5036544;28;20033;-77
2023/04/09 12:51:31;;;;;;;57.45;29.10;;;;;;;;;;5037527;28;20030;-76
2023/04/09 12:53:57;;;;;;;51.90;28.92;;;;;;;;;;5034270;28;20605;-73
2023/04/09 12:56:23;;;;;;;54.35;29.63;;;;;;;;;;5033438;28;20025;-78
2023/04/09 12:58:50;;;;;;;55.90;30.35;;;;;;;;;;5032038;28;20497;-73
2023/04/09 13:01:16;;;;;;;57.67;30.20;;;;;;;;;;5031889;28;20109;-73
2023/04/09 13:03:42;;;;;;;58.25;30.40;;;;;;;;;;5029773;28;20037;-73
2023/04/09 13:06:08;;;;;;;60.38;33.05;;;;;;;;;;5031282;28;20025;-73
2023/04/09 13:08:35;;;;;;;56.78;31.90;;;;;;;;;;5031036;28;20470;-73
2023/04/09 13:11:01;;;;;;;59.78;30.73;;;;;;;;;;5030601;28;20072;-76
2023/04/09 13:13:27;;;;;;;53.60;29.98;;;;;;;;;;5031610;28;20025;-72
2023/04/09 13:15:53;;;;;;;55.95;30.05;;;;;;;;;;5031310;28;20113;-73
2023/04/09 13:18:19;;;;;;;53.75;29.95;;;;;;;;;;5031230;28;20087;-76
2023/04/09 13:20:45;;;;;;;58.40;31.42;;;;;;;;;;5031224;28;20268;-72
2023/04/09 13:23:11;;;;;;;59.80;30.48;;;;;;;;;;5031197;28;20018;-72
2023/04/09 13:25:37;;;;;;;61.53;32.00;;;;;;;;;;5030890;28;20038;-73
2023/04/09 13:28:03;;;;;;;58.25;30.25;;;;;;;;;;5030910;28;20474;-73
2023/04/09 13:30:29;;;;;;;55.42;29.45;;;;;;;;;;5030966;28;20029;-72
2023/04/09 13:32:55;;;;;;;52.92;29.95;;;;;;;;;;5031013;28;20075;-72
2023/04/09 13:35:21;;;;;;;62.63;32.78;;;;;;;;;;5030934;28;20026;-73
2023/04/09 13:37:47;;;;;;;57.55;31.42;;;;;;;;;;5030825;28;20394;-72
2023/04/09 13:40:15;;;;;;;56.92;32.38;;;;;;;;;;5030803;28;20592;-72
2023/04/09 13:42:41;;;;;;;52.80;28.98;;;;;;;;;;5030772;28;20042;-73
2023/04/09 13:45:07;;;;;;;51.38;29.23;;;;;;;;;;5030518;28;20041;-72
2023/04/09 13:47:33;;;;;;;57.88;31.30;;;;;;;;;;5030794;28;20096;-71
2023/04/09 13:49:59;;;;;;;52.55;30.00;;;;;;;;;;5030903;28;20112;-71
2023/04/09 13:52:25;;;;;;;50.42;28.95;;;;;;;;;;5030891;28;20120;-72
2023/04/09 13:54:52;;;;;;;51.70;28.65;;;;;;;;;;5030666;28;20508;-73
2023/04/09 13:57:18;;;;;;;52.08;29.38;;;;;;;;;;5030602;28;20022;-73
2023/04/09 13:59:44;;;;;;;45.95;26.40;;;;;;;;;;5030792;28;20113;-73
2023/04/09 14:02:10;;;;;;;49.03;28.48;;;;;;;;;;5029564;28;20021;-72
2023/04/09 14:04:36;;;;;;;51.40;28.60;;;;;;;;;;5029218;28;20034;-75
2023/04/09 14:07:02;;;;;;;53.22;28.83;;;;;;;;;;5030673;28;20088;-73
2023/04/09 14:09:28;;;;;;;50.42;27.27;;;;;;;;;;5030417;28;20022;-72
2023/04/09 14:11:54;;;;;;;49.58;27.13;;;;;;;;;;5031073;28;20034;-73